Warning: fopen(/var/www/metroair/shared/private/wxdata/metar/AVWX/metar_LSGG): failed to open stream: Permission denied in /var/www/metroair/shared/private/library/orig_library/lib_airport.php on line 346

Warning: fwrite() expects parameter 1 to be resource, boolean given in /var/www/metroair/shared/private/library/orig_library/lib_airport.php on line 347

Warning: fclose() expects parameter 1 to be resource, boolean given in /var/www/metroair/shared/private/library/orig_library/lib_airport.php on line 348

Warning: fopen(/var/www/metroair/shared/private/wxdata/TAF/AVWX/taf_LSGG): failed to open stream: Permission denied in /var/www/metroair/shared/private/library/orig_library/lib_airport.php on line 533

Warning: fwrite() expects parameter 1 to be resource, boolean given in /var/www/metroair/shared/private/library/orig_library/lib_airport.php on line 534

Warning: fclose() expects parameter 1 to be resource, boolean given in /var/www/metroair/shared/private/library/orig_library/lib_airport.php on line 535

MET6439 - Geneva to Manchester

Boeing 737-800
G-FLII - Fly UK
1 hr 30 mins
537 nm
Fly UK Codeshare - SU | M | W | F

Departure

Departing from
Geneva (GVA)
Departure gate
15
Scheduled Departure
GMT 1720
Local 1820
METAR LSGG 230020Z AUTO VRB01KT 3600 BR BKN006 M02/M03 Q1023 NOSIG
TAF TAF LSGG 222325Z 2300/2406 VRB03KT 4000 BR OVC006 TXM02/2314Z TNM04/2306Z TNM04/2406Z TEMPO 2300/2307 2800 OVC004 BECMG 2310/2313 04006KT 6000 BKN015 BECMG 2322/2324 VRB03KT 4000 BR OVC008
  • No charts available

Arrival

Arriving at
Manchester (MAN)
Arrival gate
Scheduled Arrival
GMT 1850
Local 1850
METAR EGCC 230020Z 12003KT 4500 BR NSC 00/M00 Q1027 BECMG 1400
TAF TAF EGCC 222300Z 2300/2406 10003KT 4000 BR FEW045 PROB30 TEMPO 2300/2303 BKN010 PROB40 2303/2311 0300 FZFG VV/// BECMG 2311/2314 6000 NSW PROB30 TEMPO 2311/2318 BKN004 TEMPO 2314/2318 4000 BR BECMG 2318/2321 3000 BR PROB30 TEMPO 2320/2324 0200 FZFG VV///

Route Map

Planning Resources

LSGG DIPI5A DIPIR UB37 IBABA UZ124 OBURO UH10 CHABY UM733 KOPOR UY376 VESAN UL613 SANDY UN57 WELIN TNT DAYN2A OSNAP FI23R EGCC
DIPIR UB37 IBABA UZ124 OBURO UH10 CHABY UM733 KOPOR UY376 VESAN UL613 SANDY UN57 WELIN TNT
DIPIR UB37 IBABA UZ124 OBURO UH10 CHABY UM733 LAULY UH37 BRY UM733 UTELA/N0444F400 UM733 KOPOR UM976 ABNUR UT10 ALESO
Route:
OFP Layout:
Units:
Detailed Navlog:
ETOPS Planning:
Plan Stepclimbs:
Runway Analysis:
Include NOTAMS:
FIR NOTAMS:
Flight Maps:

Return Flights

MET6438 (Operated by Fly UK)
Boeing 737-800
1515 GMT

Popularity

Hub Current Bids PiReps this month Total PiReps
KMCI 0 0 0
KLAX 0 0 2
KBOS 0 0 0